Ernest, Pennsylvania
Current Conditions -  °F | °C
As of 12:15 PM on Friday 19 Dec 2014 (Local Time) from KIDI Reporting Station
Overcast Overcast  
Wind Chill: 22°   Ceiling: 1700
Heat Index: 30°   Visibility: 10mi
Dew Point: 25°   Wind: 9mph
Humidity: 80%   Direction: 290°WNW
Pressure: 30.18"   Gusts: NA
Location:  40.68°N, 79.16°W
Report Text: KIDI 191715Z AUTO 29008KT 10SM OVC017 M01/M04 A3018 RMK A01
Loading
Personal Weather Stations






























Interactive Weather Map New forecast layout! Learn more

10-Day Weather Forecast

Advertisements
Track Severe Weather on mobile